sensor_id;sensor_type;location;lat;lon;timestamp;temperature;humidity
37528;DHT22;23372;52.050;4.810;2023-12-20T00:02:16;6.70;99.90
37528;DHT22;23372;52.050;4.810;2023-12-20T00:04:41;6.70;99.90
37528;DHT22;23372;52.050;4.810;2023-12-20T00:07:07;6.60;99.90
37528;DHT22;23372;52.050;4.810;2023-12-20T00:09:32;6.60;99.90
37528;DHT22;23372;52.050;4.810;2023-12-20T00:11:58;6.60;99.90
37528;DHT22;23372;52.050;4.810;2023-12-20T00:14:23;6.60;99.90
37528;DHT22;23372;52.050;4.810;2023-12-20T00:16:49;6.60;99.90
37528;DHT22;23372;52.050;4.810;2023-12-20T00:19:14;6.70;99.90
37528;DHT22;23372;52.050;4.810;2023-12-20T00:21:40;6.70;99.90
37528;DHT22;23372;52.050;4.810;2023-12-20T00:24:06;6.70;99.90
37528;DHT22;23372;52.050;4.810;2023-12-20T00:26:32;6.70;99.90
37528;DHT22;23372;52.050;4.810;2023-12-20T00:28:57;6.70;99.90
37528;DHT22;23372;52.050;4.810;2023-12-20T00:31:23;6.70;99.90
37528;DHT22;23372;52.050;4.810;2023-12-20T00:33:48;6.80;99.90
37528;DHT22;23372;52.050;4.810;2023-12-20T00:36:14;6.80;99.90
37528;DHT22;23372;52.050;4.810;2023-12-20T00:38:39;6.80;99.90
37528;DHT22;23372;52.050;4.810;2023-12-20T00:41:05;6.90;99.90
37528;DHT22;23372;52.050;4.810;2023-12-20T00:43:30;6.90;99.90
37528;DHT22;23372;52.050;4.810;2023-12-20T00:45:56;6.90;99.90
37528;DHT22;23372;52.050;4.810;2023-12-20T00:48:22;6.90;99.90
37528;DHT22;23372;52.050;4.810;2023-12-20T00:50:47;6.90;99.90
37528;DHT22;23372;52.050;4.810;2023-12-20T00:53:13;7.00;99.90
37528;DHT22;23372;52.050;4.810;2023-12-20T00:55:38;7.00;99.90
37528;DHT22;23372;52.050;4.810;2023-12-20T00:58:04;7.00;99.90
37528;DHT22;23372;52.050;4.810;2023-12-20T01:00:30;7.00;99.90
37528;DHT22;23372;52.050;4.810;2023-12-20T01:02:55;7.00;99.90
37528;DHT22;23372;52.050;4.810;2023-12-20T01:05:21;7.00;99.90
37528;DHT22;23372;52.050;4.810;2023-12-20T01:07:49;7.00;99.90
37528;DHT22;23372;52.050;4.810;2023-12-20T01:10:15;7.00;99.90
37528;DHT22;23372;52.050;4.810;2023-12-20T01:12:40;7.10;99.90
37528;DHT22;23372;52.050;4.810;2023-12-20T01:15:06;7.10;99.90
37528;DHT22;23372;52.050;4.810;2023-12-20T01:17:32;7.10;99.90
37528;DHT22;23372;52.050;4.810;2023-12-20T01:19:57;7.10;99.90
37528;DHT22;23372;52.050;4.810;2023-12-20T01:22:23;7.10;99.90
37528;DHT22;23372;52.050;4.810;2023-12-20T01:24:49;7.20;99.90
37528;DHT22;23372;52.050;4.810;2023-12-20T01:27:14;7.20;99.90
37528;DHT22;23372;52.050;4.810;2023-12-20T01:29:40;7.20;99.90
37528;DHT22;23372;52.050;4.810;2023-12-20T01:32:06;7.20;99.90
37528;DHT22;23372;52.050;4.810;2023-12-20T01:34:31;7.20;99.90
37528;DHT22;23372;52.050;4.810;2023-12-20T01:36:57;7.20;99.90
37528;DHT22;23372;52.050;4.810;2023-12-20T01:39:22;7.30;99.90
37528;DHT22;23372;52.050;4.810;2023-12-20T01:41:48;7.20;99.90
37528;DHT22;23372;52.050;4.810;2023-12-20T01:44:14;7.30;99.90
37528;DHT22;23372;52.050;4.810;2023-12-20T01:46:39;7.30;99.90
37528;DHT22;23372;52.050;4.810;2023-12-20T01:49:05;7.30;99.90
37528;DHT22;23372;52.050;4.810;2023-12-20T01:51:31;7.30;99.90
37528;DHT22;23372;52.050;4.810;2023-12-20T01:53:57;7.40;99.90
37528;DHT22;23372;52.050;4.810;2023-12-20T01:56:25;7.40;99.90
37528;DHT22;23372;52.050;4.810;2023-12-20T01:58:51;7.40;99.90
37528;DHT22;23372;52.050;4.810;2023-12-20T02:01:17;7.40;99.90
37528;DHT22;23372;52.050;4.810;2023-12-20T02:03:43;7.50;99.90
37528;DHT22;23372;52.050;4.810;2023-12-20T02:06:09;7.50;99.90
37528;DHT22;23372;52.050;4.810;2023-12-20T02:08:36;7.50;99.90
37528;DHT22;23372;52.050;4.810;2023-12-20T02:11:01;7.50;99.90
37528;DHT22;23372;52.050;4.810;2023-12-20T02:13:27;7.40;99.90
37528;DHT22;23372;52.050;4.810;2023-12-20T02:15:54;7.40;99.90
37528;DHT22;23372;52.050;4.810;2023-12-20T02:18:19;7.40;99.90
37528;DHT22;23372;52.050;4.810;2023-12-20T02:20:45;7.40;99.90
37528;DHT22;23372;52.050;4.810;2023-12-20T02:23:10;7.30;99.90
37528;DHT22;23372;52.050;4.810;2023-12-20T02:25:36;7.30;99.90
37528;DHT22;23372;52.050;4.810;2023-12-20T02:28:03;7.30;99.90
37528;DHT22;23372;52.050;4.810;2023-12-20T02:30:29;7.40;99.90
37528;DHT22;23372;52.050;4.810;2023-12-20T02:32:54;7.40;99.90
37528;DHT22;23372;52.050;4.810;2023-12-20T02:35:20;7.50;99.90
37528;DHT22;23372;52.050;4.810;2023-12-20T02:37:46;7.50;99.90
37528;DHT22;23372;52.050;4.810;2023-12-20T02:40:11;7.50;99.90
37528;DHT22;23372;52.050;4.810;2023-12-20T02:42:37;7.50;99.90
37528;DHT22;23372;52.050;4.810;2023-12-20T02:45:02;7.50;99.90
37528;DHT22;23372;52.050;4.810;2023-12-20T02:47:28;7.40;99.90
37528;DHT22;23372;52.050;4.810;2023-12-20T02:49:55;7.40;99.90
37528;DHT22;23372;52.050;4.810;2023-12-20T02:52:21;7.30;99.90
37528;DHT22;23372;52.050;4.810;2023-12-20T02:54:47;7.40;99.90
37528;DHT22;23372;52.050;4.810;2023-12-20T02:57:13;7.40;99.90
37528;DHT22;23372;52.050;4.810;2023-12-20T02:59:38;7.40;99.90
37528;DHT22;23372;52.050;4.810;2023-12-20T03:02:04;7.40;99.90
37528;DHT22;23372;52.050;4.810;2023-12-20T03:04:29;7.40;99.90
37528;DHT22;23372;52.050;4.810;2023-12-20T03:06:55;7.40;99.90
37528;DHT22;23372;52.050;4.810;2023-12-20T03:09:20;7.40;99.90
37528;DHT22;23372;52.050;4.810;2023-12-20T03:11:46;7.40;99.90
37528;DHT22;23372;52.050;4.810;2023-12-20T03:14:11;7.40;99.90
37528;DHT22;23372;52.050;4.810;2023-12-20T03:16:37;7.40;99.90
37528;DHT22;23372;52.050;4.810;2023-12-20T03:19:02;7.50;99.90
37528;DHT22;23372;52.050;4.810;2023-12-20T03:21:28;7.50;99.90
37528;DHT22;23372;52.050;4.810;2023-12-20T03:23:53;7.40;99.90
37528;DHT22;23372;52.050;4.810;2023-12-20T03:26:19;7.40;99.90
37528;DHT22;23372;52.050;4.810;2023-12-20T03:28:44;7.30;99.90
37528;DHT22;23372;52.050;4.810;2023-12-20T03:31:10;7.30;99.90
37528;DHT22;23372;52.050;4.810;2023-12-20T03:33:36;7.40;99.90
37528;DHT22;23372;52.050;4.810;2023-12-20T03:36:01;7.30;99.90
37528;DHT22;23372;52.050;4.810;2023-12-20T03:38:27;7.30;99.90
37528;DHT22;23372;52.050;4.810;2023-12-20T03:40:52;7.40;99.90
37528;DHT22;23372;52.050;4.810;2023-12-20T03:43:18;7.40;99.90
37528;DHT22;23372;52.050;4.810;2023-12-20T03:45:44;7.40;99.90
37528;DHT22;23372;52.050;4.810;2023-12-20T03:48:09;7.30;99.90
37528;DHT22;23372;52.050;4.810;2023-12-20T03:50:35;7.30;99.90
37528;DHT22;23372;52.050;4.810;2023-12-20T03:53:01;7.30;99.90
37528;DHT22;23372;52.050;4.810;2023-12-20T03:55:26;7.30;99.90
37528;DHT22;23372;52.050;4.810;2023-12-20T03:57:52;7.40;99.90
37528;DHT22;23372;52.050;4.810;2023-12-20T04:00:18;7.40;99.90
37528;DHT22;23372;52.050;4.810;2023-12-20T04:02:43;7.50;99.90
37528;DHT22;23372;52.050;4.810;2023-12-20T04:05:09;7.40;99.90
37528;DHT22;23372;52.050;4.810;2023-12-20T04:07:35;7.40;99.90
37528;DHT22;23372;52.050;4.810;2023-12-20T04:10:01;7.40;99.90
37528;DHT22;23372;52.050;4.810;2023-12-20T04:12:28;7.40;99.90
37528;DHT22;23372;52.050;4.810;2023-12-20T04:14:53;7.40;99.90
37528;DHT22;23372;52.050;4.810;2023-12-20T04:17:20;7.40;99.90
37528;DHT22;23372;52.050;4.810;2023-12-20T04:19:45;7.50;99.90
37528;DHT22;23372;52.050;4.810;2023-12-20T04:22:11;7.50;99.90
37528;DHT22;23372;52.050;4.810;2023-12-20T04:24:36;7.60;99.90
37528;DHT22;23372;52.050;4.810;2023-12-20T04:27:02;7.60;99.90
37528;DHT22;23372;52.050;4.810;2023-12-20T04:29:28;7.60;99.90
37528;DHT22;23372;52.050;4.810;2023-12-20T04:31:53;7.60;99.90
37528;DHT22;23372;52.050;4.810;2023-12-20T04:34:19;7.60;99.90
37528;DHT22;23372;52.050;4.810;2023-12-20T04:36:45;7.60;99.90
37528;DHT22;23372;52.050;4.810;2023-12-20T04:39:12;7.60;99.90
37528;DHT22;23372;52.050;4.810;2023-12-20T04:41:38;7.60;99.90
37528;DHT22;23372;52.050;4.810;2023-12-20T04:44:04;7.50;99.90
37528;DHT22;23372;52.050;4.810;2023-12-20T04:46:29;7.40;99.90
37528;DHT22;23372;52.050;4.810;2023-12-20T04:48:55;7.30;99.90
37528;DHT22;23372;52.050;4.810;2023-12-20T04:51:21;7.30;99.90
37528;DHT22;23372;52.050;4.810;2023-12-20T04:53:46;7.30;99.90
37528;DHT22;23372;52.050;4.810;2023-12-20T04:56:12;7.30;99.90
37528;DHT22;23372;52.050;4.810;2023-12-20T04:58:37;7.20;99.90
37528;DHT22;23372;52.050;4.810;2023-12-20T05:01:04;7.20;99.90
37528;DHT22;23372;52.050;4.810;2023-12-20T05:03:30;7.30;99.90
37528;DHT22;23372;52.050;4.810;2023-12-20T05:05:56;7.40;99.90
37528;DHT22;23372;52.050;4.810;2023-12-20T05:08:22;7.40;99.90
37528;DHT22;23372;52.050;4.810;2023-12-20T05:10:47;7.50;99.90
37528;DHT22;23372;52.050;4.810;2023-12-20T05:13:13;7.50;99.90
37528;DHT22;23372;52.050;4.810;2023-12-20T05:15:39;7.50;99.90
37528;DHT22;23372;52.050;4.810;2023-12-20T05:18:04;7.50;99.90
37528;DHT22;23372;52.050;4.810;2023-12-20T05:20:30;7.50;99.90
37528;DHT22;23372;52.050;4.810;2023-12-20T05:22:55;7.40;99.90
37528;DHT22;23372;52.050;4.810;2023-12-20T05:25:21;7.40;99.90
37528;DHT22;23372;52.050;4.810;2023-12-20T05:27:47;7.40;99.90
37528;DHT22;23372;52.050;4.810;2023-12-20T05:30:12;7.50;99.90
37528;DHT22;23372;52.050;4.810;2023-12-20T05:32:39;7.50;99.90
37528;DHT22;23372;52.050;4.810;2023-12-20T05:35:04;7.50;99.90
37528;DHT22;23372;52.050;4.810;2023-12-20T05:37:30;7.60;99.90
37528;DHT22;23372;52.050;4.810;2023-12-20T05:39:55;7.60;99.90
37528;DHT22;23372;52.050;4.810;2023-12-20T05:42:21;7.60;99.90
37528;DHT22;23372;52.050;4.810;2023-12-20T05:44:46;7.70;99.90
37528;DHT22;23372;52.050;4.810;2023-12-20T05:47:12;7.70;99.90
37528;DHT22;23372;52.050;4.810;2023-12-20T05:49:37;7.70;99.90
37528;DHT22;23372;52.050;4.810;2023-12-20T05:52:03;7.80;99.90
37528;DHT22;23372;52.050;4.810;2023-12-20T05:54:29;7.80;99.90
37528;DHT22;23372;52.050;4.810;2023-12-20T05:56:55;7.80;99.90
37528;DHT22;23372;52.050;4.810;2023-12-20T05:59:20;7.80;99.90
37528;DHT22;23372;52.050;4.810;2023-12-20T06:01:46;7.80;99.90
37528;DHT22;23372;52.050;4.810;2023-12-20T06:04:11;7.80;99.90
37528;DHT22;23372;52.050;4.810;2023-12-20T06:06:41;7.80;99.90
37528;DHT22;23372;52.050;4.810;2023-12-20T06:09:07;7.90;99.90
37528;DHT22;23372;52.050;4.810;2023-12-20T06:11:33;7.80;99.90
37528;DHT22;23372;52.050;4.810;2023-12-20T06:13:58;7.90;99.90
37528;DHT22;23372;52.050;4.810;2023-12-20T06:16:24;7.90;99.90
37528;DHT22;23372;52.050;4.810;2023-12-20T06:18:49;7.90;99.90
37528;DHT22;23372;52.050;4.810;2023-12-20T06:21:15;7.90;99.90
37528;DHT22;23372;52.050;4.810;2023-12-20T06:23:41;7.90;99.90
37528;DHT22;23372;52.050;4.810;2023-12-20T06:26:06;7.90;99.90
37528;DHT22;23372;52.050;4.810;2023-12-20T06:28:32;7.90;99.90
37528;DHT22;23372;52.050;4.810;2023-12-20T06:30:57;7.90;99.90
37528;DHT22;23372;52.050;4.810;2023-12-20T06:33:23;8.00;99.90
37528;DHT22;23372;52.050;4.810;2023-12-20T06:35:49;7.90;99.90
37528;DHT22;23372;52.050;4.810;2023-12-20T06:38:15;8.00;99.90
37528;DHT22;23372;52.050;4.810;2023-12-20T06:40:40;8.00;99.90
37528;DHT22;23372;52.050;4.810;2023-12-20T06:43:06;8.00;99.90
37528;DHT22;23372;52.050;4.810;2023-12-20T06:45:32;8.00;99.90
37528;DHT22;23372;52.050;4.810;2023-12-20T06:47:58;8.00;99.90
37528;DHT22;23372;52.050;4.810;2023-12-20T06:50:23;8.00;99.90
37528;DHT22;23372;52.050;4.810;2023-12-20T06:52:49;8.00;99.90
37528;DHT22;23372;52.050;4.810;2023-12-20T06:55:15;8.00;99.90
37528;DHT22;23372;52.050;4.810;2023-12-20T06:57:40;8.10;99.90
37528;DHT22;23372;52.050;4.810;2023-12-20T07:00:06;8.00;99.90
37528;DHT22;23372;52.050;4.810;2023-12-20T07:02:33;8.00;99.90
37528;DHT22;23372;52.050;4.810;2023-12-20T07:04:59;8.00;99.90
37528;DHT22;23372;52.050;4.810;2023-12-20T07:07:25;8.00;99.90
37528;DHT22;23372;52.050;4.810;2023-12-20T07:09:51;8.00;99.90
37528;DHT22;23372;52.050;4.810;2023-12-20T07:12:17;8.00;99.90
37528;DHT22;23372;52.050;4.810;2023-12-20T07:14:45;8.00;99.90
37528;DHT22;23372;52.050;4.810;2023-12-20T07:17:10;8.00;99.90
37528;DHT22;23372;52.050;4.810;2023-12-20T07:19:41;8.00;99.90
37528;DHT22;23372;52.050;4.810;2023-12-20T07:22:07;8.10;99.90
37528;DHT22;23372;52.050;4.810;2023-12-20T07:24:33;8.00;99.90
37528;DHT22;23372;52.050;4.810;2023-12-20T07:27:00;8.00;99.90
37528;DHT22;23372;52.050;4.810;2023-12-20T07:29:25;8.00;99.90
37528;DHT22;23372;52.050;4.810;2023-12-20T07:31:52;8.00;99.90
37528;DHT22;23372;52.050;4.810;2023-12-20T07:34:22;7.90;99.90
37528;DHT22;23372;52.050;4.810;2023-12-20T07:36:47;7.90;99.90
37528;DHT22;23372;52.050;4.810;2023-12-20T07:39:14;7.90;99.90
37528;DHT22;23372;52.050;4.810;2023-12-20T07:41:39;7.90;99.90
37528;DHT22;23372;52.050;4.810;2023-12-20T07:44:06;7.90;99.90
37528;DHT22;23372;52.050;4.810;2023-12-20T07:46:32;7.90;99.90
37528;DHT22;23372;52.050;4.810;2023-12-20T07:48:57;7.90;99.90
37528;DHT22;23372;52.050;4.810;2023-12-20T07:51:23;8.00;99.90
37528;DHT22;23372;52.050;4.810;2023-12-20T07:53:48;8.00;99.90
37528;DHT22;23372;52.050;4.810;2023-12-20T07:56:18;8.00;99.90
37528;DHT22;23372;52.050;4.810;2023-12-20T07:58:45;8.00;99.90
37528;DHT22;23372;52.050;4.810;2023-12-20T08:01:11;8.00;99.90
37528;DHT22;23372;52.050;4.810;2023-12-20T08:03:38;8.10;99.90
37528;DHT22;23372;52.050;4.810;2023-12-20T08:06:04;8.10;99.90
37528;DHT22;23372;52.050;4.810;2023-12-20T08:08:29;8.10;99.90
37528;DHT22;23372;52.050;4.810;2023-12-20T08:10:55;8.10;99.90
37528;DHT22;23372;52.050;4.810;2023-12-20T08:13:23;8.10;99.90
37528;DHT22;23372;52.050;4.810;2023-12-20T08:15:51;8.10;99.90
37528;DHT22;23372;52.050;4.810;2023-12-20T08:18:17;8.20;99.90
37528;DHT22;23372;52.050;4.810;2023-12-20T08:20:42;8.20;99.90
37528;DHT22;23372;52.050;4.810;2023-12-20T08:23:08;8.20;99.90
37528;DHT22;23372;52.050;4.810;2023-12-20T08:25:33;8.20;99.90
37528;DHT22;23372;52.050;4.810;2023-12-20T08:27:59;8.20;99.90
37528;DHT22;23372;52.050;4.810;2023-12-20T08:30:24;8.30;99.90
37528;DHT22;23372;52.050;4.810;2023-12-20T08:32:50;8.30;99.90
37528;DHT22;23372;52.050;4.810;2023-12-20T08:35:16;8.30;99.90
37528;DHT22;23372;52.050;4.810;2023-12-20T08:37:42;8.30;99.90
37528;DHT22;23372;52.050;4.810;2023-12-20T08:40:08;8.40;99.90
37528;DHT22;23372;52.050;4.810;2023-12-20T08:42:34;8.40;99.90
37528;DHT22;23372;52.050;4.810;2023-12-20T08:44:59;8.30;99.90
37528;DHT22;23372;52.050;4.810;2023-12-20T08:47:25;8.40;99.90
37528;DHT22;23372;52.050;4.810;2023-12-20T08:49:51;8.40;99.90
37528;DHT22;23372;52.050;4.810;2023-12-20T08:52:16;8.40;99.90
37528;DHT22;23372;52.050;4.810;2023-12-20T08:54:42;8.40;99.90
37528;DHT22;23372;52.050;4.810;2023-12-20T08:57:08;8.50;99.90
37528;DHT22;23372;52.050;4.810;2023-12-20T08:59:33;8.50;99.90
37528;DHT22;23372;52.050;4.810;2023-12-20T09:01:59;8.50;99.90
37528;DHT22;23372;52.050;4.810;2023-12-20T09:04:25;8.50;99.90
37528;DHT22;23372;52.050;4.810;2023-12-20T09:06:50;8.50;99.90
37528;DHT22;23372;52.050;4.810;2023-12-20T09:09:16;8.50;99.90
37528;DHT22;23372;52.050;4.810;2023-12-20T09:11:42;8.60;99.90
37528;DHT22;23372;52.050;4.810;2023-12-20T09:14:08;8.60;99.90
37528;DHT22;23372;52.050;4.810;2023-12-20T09:16:33;8.60;99.90
37528;DHT22;23372;52.050;4.810;2023-12-20T09:18:59;8.60;99.90
37528;DHT22;23372;52.050;4.810;2023-12-20T09:21:24;8.60;99.90
37528;DHT22;23372;52.050;4.810;2023-12-20T09:23:50;8.70;99.90
37528;DHT22;23372;52.050;4.810;2023-12-20T09:26:15;8.70;99.90
37528;DHT22;23372;52.050;4.810;2023-12-20T09:28:41;8.70;99.90
37528;DHT22;23372;52.050;4.810;2023-12-20T09:31:06;8.60;99.90
37528;DHT22;23372;52.050;4.810;2023-12-20T09:33:32;8.70;99.90
37528;DHT22;23372;52.050;4.810;2023-12-20T09:35:58;8.70;99.90
37528;DHT22;23372;52.050;4.810;2023-12-20T09:38:24;8.80;99.90
37528;DHT22;23372;52.050;4.810;2023-12-20T09:40:49;8.80;99.90
37528;DHT22;23372;52.050;4.810;2023-12-20T09:43:18;8.80;99.90
37528;DHT22;23372;52.050;4.810;2023-12-20T09:45:46;8.80;99.90
37528;DHT22;23372;52.050;4.810;2023-12-20T09:48:12;8.90;99.90
37528;DHT22;23372;52.050;4.810;2023-12-20T09:50:40;8.90;99.90
37528;DHT22;23372;52.050;4.810;2023-12-20T09:53:08;8.90;99.90
37528;DHT22;23372;52.050;4.810;2023-12-20T09:55:36;9.00;99.90
37528;DHT22;23372;52.050;4.810;2023-12-20T09:58:01;9.00;99.90
37528;DHT22;23372;52.050;4.810;2023-12-20T10:00:27;9.00;99.90
37528;DHT22;23372;52.050;4.810;2023-12-20T10:02:57;9.00;99.90
37528;DHT22;23372;52.050;4.810;2023-12-20T10:05:27;9.00;99.90
37528;DHT22;23372;52.050;4.810;2023-12-20T10:07:53;9.10;99.90
37528;DHT22;23372;52.050;4.810;2023-12-20T10:10:18;9.10;99.90
37528;DHT22;23372;52.050;4.810;2023-12-20T10:13:04;9.10;99.90
37528;DHT22;23372;52.050;4.810;2023-12-20T10:15:30;9.10;99.90
37528;DHT22;23372;52.050;4.810;2023-12-20T10:17:56;9.10;99.90
37528;DHT22;23372;52.050;4.810;2023-12-20T10:20:22;9.10;99.90
37528;DHT22;23372;52.050;4.810;2023-12-20T10:22:48;9.10;99.90
37528;DHT22;23372;52.050;4.810;2023-12-20T10:25:14;9.10;99.90
37528;DHT22;23372;52.050;4.810;2023-12-20T10:27:40;9.10;99.90
37528;DHT22;23372;52.050;4.810;2023-12-20T10:30:06;9.10;99.90
37528;DHT22;23372;52.050;4.810;2023-12-20T10:32:31;9.20;99.90
37528;DHT22;23372;52.050;4.810;2023-12-20T10:34:57;9.10;99.90
37528;DHT22;23372;52.050;4.810;2023-12-20T10:37:24;9.20;99.90
37528;DHT22;23372;52.050;4.810;2023-12-20T10:39:52;9.20;99.90
37528;DHT22;23372;52.050;4.810;2023-12-20T10:42:22;9.20;99.90
37528;DHT22;23372;52.050;4.810;2023-12-20T10:44:49;9.20;99.90
37528;DHT22;23372;52.050;4.810;2023-12-20T10:47:15;9.20;99.90
37528;DHT22;23372;52.050;4.810;2023-12-20T10:49:43;9.20;99.90
37528;DHT22;23372;52.050;4.810;2023-12-20T10:52:11;9.20;99.90
37528;DHT22;23372;52.050;4.810;2023-12-20T10:54:37;9.30;99.90
37528;DHT22;23372;52.050;4.810;2023-12-20T10:57:05;9.20;99.90
37528;DHT22;23372;52.050;4.810;2023-12-20T10:59:33;9.30;99.90
37528;DHT22;23372;52.050;4.810;2023-12-20T11:02:02;9.30;99.90
37528;DHT22;23372;52.050;4.810;2023-12-20T11:07:22;9.40;99.90
37528;DHT22;23372;52.050;4.810;2023-12-20T11:10:29;9.50;99.90
37528;DHT22;23372;52.050;4.810;2023-12-20T11:13:20;9.50;99.90
37528;DHT22;23372;52.050;4.810;2023-12-20T11:15:47;9.50;99.90
37528;DHT22;23372;52.050;4.810;2023-12-20T11:18:13;9.50;99.90
37528;DHT22;23372;52.050;4.810;2023-12-20T11:20:41;9.50;99.90
37528;DHT22;23372;52.050;4.810;2023-12-20T11:23:08;9.40;99.90
37528;DHT22;23372;52.050;4.810;2023-12-20T11:25:47;9.40;99.90
37528;DHT22;23372;52.050;4.810;2023-12-20T11:28:14;9.40;99.90
37528;DHT22;23372;52.050;4.810;2023-12-20T11:30:46;9.40;99.90
37528;DHT22;23372;52.050;4.810;2023-12-20T11:33:15;9.40;99.90
37528;DHT22;23372;52.050;4.810;2023-12-20T11:35:45;9.30;99.90
37528;DHT22;23372;52.050;4.810;2023-12-20T11:38:11;9.40;99.90
37528;DHT22;23372;52.050;4.810;2023-12-20T11:40:37;9.40;99.90
37528;DHT22;23372;52.050;4.810;2023-12-20T11:43:03;9.50;99.90
37528;DHT22;23372;52.050;4.810;2023-12-20T11:45:30;9.50;99.90
37528;DHT22;23372;52.050;4.810;2023-12-20T11:47:56;9.60;99.90
37528;DHT22;23372;52.050;4.810;2023-12-20T11:50:23;9.70;99.90
37528;DHT22;23372;52.050;4.810;2023-12-20T11:52:50;9.70;99.90
37528;DHT22;23372;52.050;4.810;2023-12-20T11:55:17;9.60;99.90
37528;DHT22;23372;52.050;4.810;2023-12-20T11:57:43;9.60;99.90
37528;DHT22;23372;52.050;4.810;2023-12-20T12:00:09;9.60;99.90
37528;DHT22;23372;52.050;4.810;2023-12-20T12:02:35;9.60;99.90
37528;DHT22;23372;52.050;4.810;2023-12-20T12:05:01;9.60;99.90
37528;DHT22;23372;52.050;4.810;2023-12-20T12:07:26;9.60;99.90
37528;DHT22;23372;52.050;4.810;2023-12-20T12:09:52;9.60;99.90
37528;DHT22;23372;52.050;4.810;2023-12-20T12:12:18;9.60;99.90
37528;DHT22;23372;52.050;4.810;2023-12-20T12:14:45;9.60;99.90
37528;DHT22;23372;52.050;4.810;2023-12-20T12:17:14;9.60;99.90
37528;DHT22;23372;52.050;4.810;2023-12-20T12:19:40;9.70;99.90
37528;DHT22;23372;52.050;4.810;2023-12-20T12:22:10;9.70;99.90
37528;DHT22;23372;52.050;4.810;2023-12-20T12:24:39;9.70;99.90
37528;DHT22;23372;52.050;4.810;2023-12-20T12:27:08;9.70;99.90
37528;DHT22;23372;52.050;4.810;2023-12-20T12:29:34;9.70;99.90
37528;DHT22;23372;52.050;4.810;2023-12-20T12:32:00;9.60;99.90
37528;DHT22;23372;52.050;4.810;2023-12-20T12:34:29;9.60;99.90
37528;DHT22;23372;52.050;4.810;2023-12-20T12:36:54;9.70;99.90
37528;DHT22;23372;52.050;4.810;2023-12-20T12:39:20;9.70;99.90
37528;DHT22;23372;52.050;4.810;2023-12-20T12:41:46;9.70;99.90
37528;DHT22;23372;52.050;4.810;2023-12-20T12:44:11;9.70;99.90
37528;DHT22;23372;52.050;4.810;2023-12-20T12:46:37;9.70;99.90
37528;DHT22;23372;52.050;4.810;2023-12-20T12:49:03;9.70;99.90
37528;DHT22;23372;52.050;4.810;2023-12-20T12:51:29;9.70;99.90
37528;DHT22;23372;52.050;4.810;2023-12-20T12:53:54;9.70;99.90
37528;DHT22;23372;52.050;4.810;2023-12-20T12:56:20;9.70;99.90
37528;DHT22;23372;52.050;4.810;2023-12-20T12:58:46;9.70;99.90
37528;DHT22;23372;52.050;4.810;2023-12-20T13:01:12;9.70;99.90
37528;DHT22;23372;52.050;4.810;2023-12-20T13:03:37;9.70;99.90
37528;DHT22;23372;52.050;4.810;2023-12-20T13:06:03;9.70;99.90
37528;DHT22;23372;52.050;4.810;2023-12-20T13:08:31;9.70;99.90
37528;DHT22;23372;52.050;4.810;2023-12-20T13:10:56;9.70;99.90
37528;DHT22;23372;52.050;4.810;2023-12-20T13:13:26;9.70;99.90
37528;DHT22;23372;52.050;4.810;2023-12-20T13:15:51;9.70;99.90
37528;DHT22;23372;52.050;4.810;2023-12-20T13:18:23;9.60;99.90
37528;DHT22;23372;52.050;4.810;2023-12-20T13:20:49;9.60;99.90
37528;DHT22;23372;52.050;4.810;2023-12-20T13:23:15;9.60;99.90
37528;DHT22;23372;52.050;4.810;2023-12-20T13:25:41;9.60;99.90
37528;DHT22;23372;52.050;4.810;2023-12-20T13:28:07;9.60;99.90
37528;DHT22;23372;52.050;4.810;2023-12-20T13:30:33;9.70;99.90
37528;DHT22;23372;52.050;4.810;2023-12-20T13:32:59;9.60;99.90
37528;DHT22;23372;52.050;4.810;2023-12-20T13:35:25;9.60;99.90
37528;DHT22;23372;52.050;4.810;2023-12-20T13:37:50;9.60;99.90
37528;DHT22;23372;52.050;4.810;2023-12-20T13:40:16;9.60;99.90
37528;DHT22;23372;52.050;4.810;2023-12-20T13:42:41;9.60;99.90
37528;DHT22;23372;52.050;4.810;2023-12-20T13:45:07;9.60;99.90
37528;DHT22;23372;52.050;4.810;2023-12-20T13:47:33;9.60;99.90
37528;DHT22;23372;52.050;4.810;2023-12-20T13:49:59;9.50;99.90
37528;DHT22;23372;52.050;4.810;2023-12-20T13:52:25;9.60;99.90
37528;DHT22;23372;52.050;4.810;2023-12-20T13:54:50;9.50;99.90
37528;DHT22;23372;52.050;4.810;2023-12-20T13:57:16;9.50;99.90
37528;DHT22;23372;52.050;4.810;2023-12-20T13:59:41;9.50;99.90
37528;DHT22;23372;52.050;4.810;2023-12-20T14:02:07;9.50;99.90
37528;DHT22;23372;52.050;4.810;2023-12-20T14:04:32;9.50;99.90
37528;DHT22;23372;52.050;4.810;2023-12-20T14:06:58;9.50;99.90
37528;DHT22;23372;52.050;4.810;2023-12-20T14:09:23;9.50;99.90
37528;DHT22;23372;52.050;4.810;2023-12-20T14:11:49;9.50;99.90
37528;DHT22;23372;52.050;4.810;2023-12-20T14:14:15;9.50;99.90
37528;DHT22;23372;52.050;4.810;2023-12-20T14:16:40;9.40;99.90
37528;DHT22;23372;52.050;4.810;2023-12-20T14:19:07;9.40;99.90
37528;DHT22;23372;52.050;4.810;2023-12-20T14:21:34;9.40;99.90
37528;DHT22;23372;52.050;4.810;2023-12-20T14:24:00;9.40;99.90
37528;DHT22;23372;52.050;4.810;2023-12-20T14:26:26;9.40;99.90
37528;DHT22;23372;52.050;4.810;2023-12-20T14:28:53;9.40;99.90
37528;DHT22;23372;52.050;4.810;2023-12-20T14:31:18;9.40;99.90
37528;DHT22;23372;52.050;4.810;2023-12-20T14:33:44;9.40;99.90
37528;DHT22;23372;52.050;4.810;2023-12-20T14:36:11;9.40;99.90
37528;DHT22;23372;52.050;4.810;2023-12-20T14:38:37;9.30;99.90
37528;DHT22;23372;52.050;4.810;2023-12-20T14:41:03;9.30;99.90
37528;DHT22;23372;52.050;4.810;2023-12-20T14:43:34;9.30;99.90
37528;DHT22;23372;52.050;4.810;2023-12-20T14:45:59;9.30;99.90
37528;DHT22;23372;52.050;4.810;2023-12-20T14:48:25;9.30;99.90
37528;DHT22;23372;52.050;4.810;2023-12-20T14:50:52;9.30;99.90
37528;DHT22;23372;52.050;4.810;2023-12-20T14:53:18;9.30;99.90
37528;DHT22;23372;52.050;4.810;2023-12-20T14:55:44;9.30;99.90
37528;DHT22;23372;52.050;4.810;2023-12-20T14:58:10;9.30;99.90
37528;DHT22;23372;52.050;4.810;2023-12-20T15:00:35;9.20;99.90
37528;DHT22;23372;52.050;4.810;2023-12-20T15:03:01;9.30;99.90
37528;DHT22;23372;52.050;4.810;2023-12-20T15:05:27;9.20;99.90
37528;DHT22;23372;52.050;4.810;2023-12-20T15:07:52;9.20;99.90
37528;DHT22;23372;52.050;4.810;2023-12-20T15:10:18;9.30;99.90
37528;DHT22;23372;52.050;4.810;2023-12-20T15:12:44;9.20;99.90
37528;DHT22;23372;52.050;4.810;2023-12-20T15:15:13;9.20;99.90
37528;DHT22;23372;52.050;4.810;2023-12-20T15:17:39;9.20;99.90
37528;DHT22;23372;52.050;4.810;2023-12-20T15:20:05;9.20;99.90
37528;DHT22;23372;52.050;4.810;2023-12-20T15:22:30;9.20;99.90
37528;DHT22;23372;52.050;4.810;2023-12-20T15:24:59;9.20;99.90
37528;DHT22;23372;52.050;4.810;2023-12-20T15:27:24;9.20;99.90
37528;DHT22;23372;52.050;4.810;2023-12-20T15:29:50;9.20;99.90
37528;DHT22;23372;52.050;4.810;2023-12-20T15:32:17;9.20;99.90
37528;DHT22;23372;52.050;4.810;2023-12-20T15:34:44;9.20;99.90
37528;DHT22;23372;52.050;4.810;2023-12-20T15:37:10;9.20;99.90
37528;DHT22;23372;52.050;4.810;2023-12-20T15:39:35;9.10;99.90
37528;DHT22;23372;52.050;4.810;2023-12-20T15:42:01;9.10;99.90